| time (UTC) | temp F | wind direction | speed MPH | gust MPH | rain 1hr in | rain 24hr in | rain mn in | humidity % | barometer mb |
| 20260507164004 | 67 | 340 | 7.0 | 12.0 | 0.00 | 2.28 | 1.24 | 78 | 1014.7 |
| 20260507163504 | 67 | 340 | 6.0 | 10.0 | 0.00 | 2.28 | 1.24 | 79 | 1014.7 |
| 20260507163003 | 67 | 304 | 5.0 | 12.0 | 0.00 | 2.28 | 1.24 | 79 | 1014.7 |
| 20260507162504 | 67 | 37 | 5.0 | 12.0 | 0.00 | 2.28 | 1.24 | 79 | 1014.6 |
| 20260507162008 | 67 | 29 | 5.0 | 12.0 | 0.00 | 2.28 | 1.24 | 80 | 1014.5 |
| 20260507161503 | 67 | 336 | 7.0 | 12.0 | 0.00 | 2.28 | 1.24 | 80 | 1014.4 |
| 20260507161007 | 67 | 18 | 9.0 | 12.0 | 0.00 | 2.28 | 1.24 | 79 | 1014.3 |
| 20260507160507 | 67 | 332 | 6.0 | 11.0 | 0.00 | 2.28 | 1.24 | 80 | 1014.3 |
| 20260507160003 | 67 | 9 | 4.0 | 9.0 | 0.00 | 2.28 | 1.24 | 79 | 1014.3 |
| 20260507155503 | 68 | 303 | 6.0 | 9.0 | 0.00 | 2.28 | 1.24 | 81 | 1014.4 |
| 20260507155003 | 67 | 338 | 4.0 | 9.0 | 0.00 | 2.28 | 1.24 | 83 | 1014.2 |
| 20260507154504 | 67 | 327 | 4.0 | 8.0 | 0.00 | 2.28 | 1.24 | 85 | 1014.1 |
| 20260507154004 | 65 | 43 | 3.0 | 8.0 | 0.00 | 2.28 | 1.24 | 85 | 1014.0 |
| 20260507153504 | 65 | 337 | 5.0 | 8.0 | 0.00 | 2.28 | 1.24 | 83 | 1013.9 |
| 20260507153008 | 65 | 277 | 5.0 | 9.0 | 0.00 | 2.28 | 1.24 | 84 | 1014.0 |
| 20260507152506 | 64 | 333 | 4.0 | 11.0 | 0.00 | 2.28 | 1.24 | 86 | 1014.0 |
| 20260507152004 | 64 | 340 | 7.0 | 11.0 | 0.00 | 2.28 | 1.24 | 86 | 1013.9 |
| 20260507151516 | 63 | 292 | 5.0 | 9.0 | 0.00 | 2.28 | 1.24 | 87 | 1014.0 |
| 20260507151004 | 63 | 337 | 4.0 | 8.0 | 0.00 | 2.28 | 1.24 | 87 | 1013.9 |
| 20260507150504 | 63 | 318 | 4.0 | 8.0 | 0.00 | 2.28 | 1.24 | 87 | 1013.9 |
| 20260507150015 | 63 | 328 | 3.0 | 10.0 | 0.00 | 2.28 | 1.24 | 88 | 1014.1 |
| 20260507145507 | 62 | 307 | 6.0 | 10.0 | 0.00 | 2.28 | 1.24 | 87 | 1014.3 |
| 20260507145011 | 62 | 304 | 5.0 | 11.0 | 0.00 | 2.28 | 1.24 | 87 | 1014.2 |
| 20260507144505 | 62 | 304 | 6.0 | 11.0 | 0.00 | 2.28 | 1.24 | 88 | 1014.1 |
| 20260507144003 | 62 | 338 | 5.0 | 11.0 | 0.01 | 2.28 | 1.24 | 89 | 1014.0 |
| 20260507143502 | 62 | 326 | 4.0 | 10.0 | 0.01 | 2.28 | 1.24 | 88 | 1014.0 |
| 20260507143016 | 62 | 317 | 5.0 | 9.0 | 0.01 | 2.28 | 1.24 | 89 | 1014.1 |
| 20260507142504 | 62 | 319 | 3.0 | 7.0 | 0.01 | 2.28 | 1.24 | 89 | 1014.0 |
| 20260507142006 | 62 | 304 | 2.0 | 5.0 | 0.01 | 2.28 | 1.24 | 89 | 1014.1 |
| 20260507141515 | 62 | 330 | 3.0 | 9.0 | 0.01 | 2.28 | 1.24 | 89 | 1014.0 |
| 20260507141007 | 62 | 13 | 3.0 | 10.0 | 0.01 | 2.28 | 1.24 | 89 | 1013.9 |
| 20260507140504 | 62 | 327 | 5.0 | 10.0 | 0.01 | 2.28 | 1.24 | 89 | 1013.7 |
| 20260507140006 | 62 | 315 | 3.0 | 8.0 | 0.01 | 2.28 | 1.24 | 90 | 1013.6 |
| 20260507135505 | 62 | 307 | 2.0 | 8.0 | 0.01 | 2.28 | 1.24 | 90 | 1013.4 |
| 20260507135007 | 61 | 31 | 1.0 | 8.0 | 0.01 | 2.28 | 1.24 | 90 | 1013.3 |
| 20260507134518 | 61 | 327 | 4.0 | 8.0 | 0.01 | 2.28 | 1.24 | 89 | 1013.6 |
| 20260507134009 | 61 | 9 | 5.0 | 8.0 | 0.00 | 2.27 | 1.23 | 90 | 1013.7 |
| 20260507133502 | 61 | 306 | 3.0 | 9.0 | 0.00 | 2.27 | 1.23 | 90 | 1013.7 |
| 20260507133007 | 61 | 5 | 3.0 | 9.0 | 0.00 | 2.27 | 1.23 | 89 | 1013.6 |
| 20260507132501 | 61 | 325 | 4.0 | 10.0 | 0.00 | 2.27 | 1.23 | 89 | 1013.7 |
| 20260507132003 | 61 | 333 | 6.0 | 10.0 | 0.00 | 2.27 | 1.23 | 90 | 1013.6 |
| 20260507131517 | 61 | 313 | 1.0 | 6.0 | 0.00 | 2.27 | 1.23 | 90 | 1013.5 |
| 20260507131008 | 61 | 30 | 0.0 | 4.0 | 0.00 | 2.27 | 1.23 | 90 | 1013.2 |
| 20260507130508 | 61 | 340 | 1.0 | 4.0 | 0.00 | 2.27 | 1.23 | 90 | 1013.1 |
| 20260507130013 | 61 | 21 | 2.0 | 5.0 | 0.00 | 2.27 | 1.23 | 90 | 1013.0 |
| 20260507125507 | 61 | 340 | 2.0 | 5.0 | 0.00 | 2.27 | 1.23 | 89 | 1012.9 |
| 20260507125005 | 61 | 36 | 2.0 | 7.0 | 0.00 | 2.27 | 1.23 | 89 | 1012.9 |
| 20260507124520 | 61 | 55 | 3.0 | 8.0 | 0.00 | 2.27 | 1.23 | 89 | 1012.8 |
| 20260507124004 | 61 | 22 | 4.0 | 10.0 | 0.00 | 2.27 | 1.23 | 89 | 1012.8 |
| 20260507123509 | 61 | 15 | 5.0 | 11.0 | 0.00 | 2.27 | 1.23 | 89 | 1012.6 |
| 20260507123014 | 61 | 24 | 3.0 | 11.0 | 0.00 | 2.27 | 1.23 | 89 | 1012.3 |
| 20260507122508 | 61 | 40 | 6.0 | 11.0 | 0.00 | 2.27 | 1.23 | 89 | 1012.2 |
| 20260507122009 | 61 | 360 | 3.0 | 12.0 | 0.00 | 2.27 | 1.23 | 89 | 1012.2 |
| 20260507121511 | 61 | 15 | 5.0 | 12.0 | 0.00 | 2.27 | 1.23 | 88 | 1012.4 |
| 20260507121003 | 62 | 327 | 5.0 | 14.0 | 0.00 | 2.27 | 1.23 | 88 | 1012.3 |
| 20260507120502 | 62 | 53 | 6.0 | 16.0 | 0.02 | 2.27 | 1.23 | 88 | 1012.0 |
| 20260507120008 | 63 | 23 | 9.0 | 16.0 | 0.06 | 2.27 | 1.23 | 88 | 1011.9 |
| 20260507115506 | 64 | 5 | 7.0 | 13.0 | 0.09 | 2.27 | 1.23 | 89 | 1011.8 |
| 20260507115005 | 64 | 9 | 4.0 | 11.0 | 0.09 | 2.27 | 1.23 | 89 | 1011.5 |
| 20260507114512 | 64 | 331 | 5.0 | 11.0 | 0.09 | 2.27 | 1.23 | 89 | 1011.4 |
| 20260507114009 | 64 | 5 | 4.0 | 11.0 | 0.10 | 2.27 | 1.23 | 89 | 1011.0 |
| 20260507113503 | 64 | 315 | 6.0 | 13.0 | 0.10 | 2.27 | 1.23 | 89 | 1011.1 |
| 20260507113010 | 64 | 340 | 6.0 | 13.0 | 0.10 | 2.27 | 1.23 | 89 | 1011.1 |
| 20260507112502 | 65 | 340 | 6.0 | 12.0 | 0.11 | 2.27 | 1.23 | 89 | 1011.1 |
| 20260507112003 | 65 | 304 | 8.0 | 12.0 | 0.11 | 2.27 | 1.23 | 89 | 1011.0 |
| 20260507111503 | 65 | 323 | 6.0 | 10.0 | 0.11 | 2.27 | 1.23 | 90 | 1011.0 |
| 20260507111001 | 65 | 360 | 4.0 | 11.0 | 0.13 | 2.27 | 1.23 | 90 | 1010.9 |
| 20260507110503 | 65 | 9 | 4.0 | 11.0 | 0.11 | 2.25 | 1.21 | 89 | 1010.9 |
| 20260507110004 | 66 | 319 | 6.0 | 11.0 | 0.07 | 2.21 | 1.16 | 90 | 1011.1 |
| 20260507105502 | 66 | 315 | 4.0 | 9.0 | 0.04 | 2.18 | 1.14 | 90 | 1010.9 |
| 20260507105003 | 66 | 305 | 4.0 | 9.0 | 0.04 | 2.18 | 1.14 | 89 | 1010.7 |
| 20260507104503 | 66 | 316 | 4.0 | 9.0 | 0.04 | 2.18 | 1.14 | 90 | 1010.7 |
| 20260507104005 | 67 | 331 | 3.0 | 9.0 | 0.03 | 2.17 | 1.13 | 90 | 1010.5 |
| 20260507103505 | 67 | 360 | 4.0 | 6.0 | 0.03 | 2.17 | 1.13 | 90 | 1010.4 |
| 20260507103003 | 67 | 303 | 2.0 | 5.0 | 0.03 | 2.17 | 1.13 | 90 | 1010.2 |
| 20260507102502 | 67 | 317 | 2.0 | 9.0 | 0.02 | 2.16 | 1.12 | 90 | 1010.1 |
| 20260507102002 | 67 | 334 | 3.0 | 9.0 | 0.02 | 2.16 | 1.12 | 90 | 1010.2 |
| 20260507101510 | 67 | 303 | 4.0 | 6.0 | 0.02 | 2.16 | 1.12 | 90 | 1010.0 |
| 20260507101005 | 68 | 294 | 3.0 | 4.0 | 0.00 | 2.14 | 1.10 | 90 | 1010.0 |
| 20260507100502 | 67 | 269 | 1.0 | 3.0 | 0.00 | 2.14 | 1.10 | 90 | 1009.9 |
| 20260507100004 | 68 | 263 | 1.0 | 2.0 | 0.00 | 2.14 | 1.10 | 90 | 1009.8 |
| 20260507095503 | 68 | 274 | 2.0 | 3.0 | 0.00 | 2.14 | 1.10 | 90 | 1009.7 |
| 20260507095003 | 67 | 312 | 1.0 | 3.0 | 0.00 | 2.14 | 1.10 | 90 | 1009.8 |
| 20260507094504 | 67 | 270 | 0.0 | 3.0 | 0.00 | 2.14 | 1.10 | 90 | 1009.8 |
| 20260507094002 | 67 | 284 | 0.0 | 2.0 | 0.00 | 2.14 | 1.10 | 90 | 1009.7 |
| 20260507093506 | 67 | 295 | 0.0 | 2.0 | 0.00 | 2.14 | 1.10 | 90 | 1009.8 |
| 20260507093004 | 67 | 295 | 0.0 | 3.0 | 0.00 | 2.14 | 1.10 | 90 | 1009.9 |
| 20260507092505 | 67 | 295 | 0.0 | 6.0 | 0.01 | 2.14 | 1.10 | 90 | 1010.0 |
| 20260507092002 | 67 | 309 | 3.0 | 6.0 | 0.01 | 2.14 | 1.10 | 90 | 1009.8 |
| 20260507091506 | 67 | 296 | 2.0 | 4.0 | 0.01 | 2.14 | 1.10 | 90 | 1009.8 |
| 20260507091003 | 67 | 266 | 1.0 | 3.0 | 0.02 | 2.14 | 1.10 | 90 | 1009.8 |
| 20260507090507 | 67 | 279 | 1.0 | 3.0 | 0.03 | 2.14 | 1.10 | 90 | 1009.8 |
| 20260507090004 | 67 | 246 | 1.0 | 3.0 | 0.05 | 2.14 | 1.10 | 90 | 1009.8 |
| 20260507085503 | 67 | 226 | 1.0 | 3.0 | 0.08 | 2.14 | 1.10 | 90 | 1009.9 |
| 20260507085003 | 67 | 225 | 2.0 | 3.0 | 0.20 | 2.14 | 1.10 | 90 | 1009.9 |
| 20260507084506 | 67 | 247 | 2.0 | 3.0 | 0.52 | 2.14 | 1.10 | 90 | 1009.8 |
| 20260507084003 | 67 | 258 | 1.0 | 2.0 | 0.75 | 2.14 | 1.10 | 90 | 1009.8 |
| 20260507083503 | 67 | 275 | 1.0 | 2.0 | 0.91 | 2.14 | 1.10 | 90 | 1009.7 |
| 20260507083004 | 67 | 225 | 1.0 | 2.0 | 0.93 | 2.14 | 1.10 | 90 | 1009.9 |
| 20260507082502 | 67 | 254 | 0.0 | 4.0 | 0.92 | 2.13 | 1.09 | 90 | 1009.9 |
| 20260507082002 | 67 | 192 | 0.0 | 4.0 | 0.93 | 2.13 | 1.09 | 90 | 1009.7 |
| 20260507081508 | 67 | 213 | 1.0 | 3.0 | 0.94 | 2.13 | 1.09 | 90 | 1009.8 |
| 20260507081003 | 67 | 40 | 0.0 | 2.0 | 0.95 | 2.11 | 1.08 | 90 | 1009.8 |
| 20260507080503 | 67 | 40 | 0.0 | 2.0 | 0.94 | 2.10 | 1.07 | 90 | 1009.7 |
| 20260507080004 | 67 | 40 | 0.0 | 3.0 | 0.92 | 2.08 | 1.04 | 90 | 1010.0 |
| 20260507075502 | 67 | 40 | 1.0 | 5.0 | 0.89 | 2.06 | 1.02 | 90 | 1010.0 |
| 20260507075003 | 67 | 45 | 2.0 | 9.0 | 0.77 | 1.94 | 0.90 | 90 | 1010.3 |
| 20260507074504 | 67 | 9 | 1.0 | 10.0 | 0.45 | 1.62 | 0.58 | 90 | 1010.3 |
| 20260507074005 | 67 | 340 | 5.0 | 9.0 | 0.22 | 1.39 | 0.35 | 90 | 1010.3 |
| 20260507073505 | 67 | 15 | 3.0 | 5.0 | 0.06 | 1.23 | 0.19 | 90 | 1009.5 |
| 20260507073007 | 67 | 68 | 2.0 | 3.0 | 0.05 | 1.21 | 0.17 | 90 | 1009.5 |
| 20260507072504 | 67 | 111 | 0.0 | 1.0 | 0.07 | 1.21 | 0.17 | 90 | 1009.8 |
| 20260507072003 | 67 | 111 | 0.0 | 2.0 | 0.06 | 1.20 | 0.16 | 90 | 1009.7 |
| 20260507071506 | 67 | 111 | 0.0 | 3.0 | 0.06 | 1.19 | 0.15 | 90 | 1009.7 |
| 20260507071003 | 67 | 111 | 1.0 | 3.0 | 0.06 | 1.16 | 0.13 | 90 | 1009.5 |
| 20260507070504 | 67 | 123 | 2.0 | 3.0 | 0.09 | 1.16 | 0.13 | 90 | 1009.4 |
| 20260507070012 | 67 | 148 | 1.0 | 2.0 | 0.09 | 1.16 | 0.13 | 90 | 1009.7 |
| 20260507065505 | 67 | 148 | 0.0 | 2.0 | 0.11 | 1.16 | 0.13 | 90 | 1010.3 |
| 20260507065003 | 67 | 148 | 0.0 | 2.0 | 0.12 | 1.16 | 0.13 | 90 | 1010.2 |
| 20260507064504 | 67 | 148 | 0.0 | 2.0 | 0.12 | 1.16 | 0.13 | 90 | 1010.3 |
| 20260507064003 | 67 | 148 | 0.0 | 2.0 | 0.12 | 1.16 | 0.13 | 90 | 1010.3 |
| 20260507063507 | 67 | 157 | 0.0 | 2.0 | 0.12 | 1.16 | 0.13 | 90 | 1010.4 |
| 20260507063008 | 67 | 142 | 1.0 | 4.0 | 0.11 | 1.16 | 0.12 | 90 | 1010.6 |
| 20260507062503 | 67 | 143 | 1.0 | 4.0 | 0.09 | 1.14 | 0.10 | 89 | 1010.8 |
| 20260507062003 | 67 | 140 | 0.0 | 5.0 | 0.10 | 1.14 | 0.10 | 90 | 1011.0 |
| 20260507061507 | 67 | 162 | 1.0 | 5.0 | 0.09 | 1.13 | 0.09 | 89 | 1011.2 |
| 20260507061004 | 67 | 158 | 2.0 | 5.0 | 0.07 | 1.11 | 0.07 | 89 | 1011.3 |
| 20260507060501 | 67 | 184 | 1.0 | 5.0 | 0.04 | 1.08 | 0.04 | 89 | 1011.8 |
| 20260507060008 | 67 | 217 | 1.0 | 5.0 | 0.04 | 1.08 | 0.04 | 89 | 1011.9 |
| 20260507055504 | 67 | 191 | 2.0 | 5.0 | 0.02 | 1.05 | 0.02 | 89 | 1012.0 |
| 20260507055004 | 67 | 161 | 0.0 | 4.0 | 0.02 | 1.04 | 0.01 | 89 | 1012.0 |
| 20260507054507 | 67 | 169 | 2.0 | 5.0 | 0.06 | 1.04 | 0.01 | 89 | 1012.0 |
| 20260507054003 | 67 | 169 | 1.0 | 5.0 | 0.07 | 1.04 | 0.01 | 89 | 1012.0 |
| 20260507053501 | 67 | 246 | 0.0 | 7.0 | 0.07 | 1.04 | 0.01 | 89 | 1012.1 |
| 20260507053005 | 67 | 184 | 2.0 | 10.0 | 0.10 | 1.04 | 0.01 | 89 | 1011.8 |
| 20260507052503 | 67 | 219 | 4.0 | 10.0 | 0.14 | 1.04 | 0.01 | 89 | 1011.4 |
| 20260507052006 | 67 | 191 | 3.0 | 14.0 | 0.13 | 1.04 | 0.00 | 89 | 1011.3 |
| 20260507051510 | 67 | 197 | 3.0 | 14.0 | 0.13 | 1.04 | 0.00 | 89 | 1011.4 |
| 20260507051001 | 67 | 155 | 1.0 | 8.0 | 0.14 | 1.04 | 0.00 | 89 | 1011.3 |
| 20260507050505 | 67 | 155 | 2.0 | 8.0 | 0.14 | 1.04 | 0.00 | 89 | 1011.5 |
| 20260507050012 | 67 | 169 | 3.0 | 6.0 | 0.14 | 1.04 | 0.00 | 89 | 1011.6 |
| 20260507045505 | 67 | 198 | 1.0 | 5.0 | 0.15 | 1.04 | 1.04 | 89 | 1011.7 |
| 20260507045007 | 67 | 165 | 2.0 | 5.0 | 0.15 | 1.03 | 1.03 | 89 | 1012.4 |
| 20260507044512 | 67 | 222 | 1.0 | 4.0 | 0.11 | 0.99 | 0.99 | 89 | 1012.4 |
| 20260507044005 | 67 | 138 | 2.0 | 4.0 | 0.11 | 0.98 | 0.98 | 89 | 1012.1 |
| 20260507043503 | 67 | 100 | 1.0 | 4.0 | 0.13 | 0.98 | 0.98 | 89 | 1012.2 |
| 20260507043020 | 67 | 75 | 2.0 | 4.0 | 0.10 | 0.95 | 0.95 | 89 | 1012.2 |
| 20260507042507 | 67 | 80 | 1.0 | 4.0 | 0.08 | 0.91 | 0.91 | 89 | 1012.1 |
| 20260507042002 | 67 | 118 | 3.0 | 4.0 | 0.10 | 0.91 | 0.91 | 89 | 1012.0 |
| 20260507041502 | 67 | 154 | 0.0 | 3.0 | 0.11 | 0.91 | 0.91 | 89 | 1012.4 |
| 20260507041001 | 68 | 134 | 0.0 | 3.0 | 0.11 | 0.90 | 0.90 | 89 | 1012.2 |
| 20260507040503 | 68 | 167 | 0.0 | 3.0 | 0.13 | 0.90 | 0.90 | 89 | 1012.0 |
| 20260507040002 | 68 | 126 | 0.0 | 7.0 | 0.16 | 0.90 | 0.90 | 89 | 1011.9 |
| 20260507035502 | 68 | 122 | 2.0 | 7.0 | 0.18 | 0.89 | 0.89 | 89 | 1011.3 |
| 20260507035005 | 68 | 168 | 2.0 | 6.0 | 0.20 | 0.88 | 0.88 | 89 | 1011.8 |
| 20260507034503 | 68 | 143 | 2.0 | 6.0 | 0.23 | 0.88 | 0.88 | 89 | 1012.1 |
| 20260507034003 | 68 | 188 | 3.0 | 9.0 | 0.24 | 0.87 | 0.87 | 89 | 1012.6 |
| 20260507033503 | 69 | 246 | 3.0 | 8.0 | 0.23 | 0.85 | 0.85 | 89 | 1013.0 |
| 20260507033003 | 69 | 195 | 3.0 | 6.0 | 0.24 | 0.85 | 0.85 | 89 | 1013.0 |
| 20260507032503 | 69 | 147 | 1.0 | 3.0 | 0.24 | 0.83 | 0.83 | 89 | 1012.5 |
| 20260507032002 | 69 | 74 | 0.0 | 3.0 | 0.22 | 0.81 | 0.81 | 89 | 1012.6 |
| 20260507031509 | 69 | 74 | 0.0 | 4.0 | 0.22 | 0.80 | 0.80 | 89 | 1012.2 |
| 20260507031003 | 69 | 324 | 2.0 | 5.0 | 0.22 | 0.79 | 0.79 | 89 | 1012.6 |
| 20260507030503 | 69 | 82 | 2.0 | 8.0 | 0.21 | 0.77 | 0.77 | 89 | 1012.5 |
| 20260507030009 | 69 | 261 | 3.0 | 8.0 | 0.21 | 0.74 | 0.74 | 89 | 1013.0 |
| 20260507025505 | 69 | 229 | 4.0 | 7.0 | 0.32 | 0.71 | 0.71 | 89 | 1013.0 |
| 20260507025002 | 69 | 192 | 3.0 | 7.0 | 0.31 | 0.68 | 0.68 | 89 | 1012.9 |
| 20260507024508 | 69 | 190 | 1.0 | 4.0 | 0.30 | 0.65 | 0.65 | 89 | 1012.8 |
| 20260507024002 | 69 | 198 | 0.0 | 3.0 | 0.29 | 0.63 | 0.63 | 89 | 1012.4 |
| 20260507023503 | 69 | 198 | 0.0 | 4.0 | 0.29 | 0.62 | 0.62 | 89 | 1012.5 |
| 20260507023007 | 69 | 198 | 1.0 | 7.0 | 0.29 | 0.61 | 0.61 | 89 | 1012.2 |
| 20260507022502 | 69 | 158 | 1.0 | 7.0 | 0.27 | 0.58 | 0.58 | 89 | 1011.8 |
| 20260507022004 | 69 | 165 | 2.0 | 5.0 | 0.27 | 0.58 | 0.58 | 89 | 1011.6 |
| 20260507021503 | 69 | 143 | 3.0 | 6.0 | 0.26 | 0.58 | 0.58 | 89 | 1011.7 |
| 20260507021005 | 69 | 187 | 2.0 | 6.0 | 0.26 | 0.57 | 0.57 | 89 | 1012.0 |
| 20260507020503 | 69 | 159 | 1.0 | 3.0 | 0.25 | 0.56 | 0.56 | 89 | 1011.7 |
| 20260507020003 | 69 | 142 | 1.0 | 2.0 | 0.22 | 0.52 | 0.52 | 89 | 1012.0 |
| 20260507015502 | 69 | 266 | 1.0 | 2.0 | 0.08 | 0.39 | 0.39 | 89 | 1012.5 |
| 20260507015005 | 69 | 196 | 0.0 | 2.0 | 0.06 | 0.37 | 0.37 | 89 | 1011.9 |
| 20260507014503 | 69 | 196 | 0.0 | 4.0 | 0.04 | 0.35 | 0.35 | 89 | 1011.9 |
| 20260507014004 | 69 | 200 | 0.0 | 6.0 | 0.03 | 0.34 | 0.34 | 89 | 1012.0 |
| 20260507013503 | 69 | 148 | 1.0 | 9.0 | 0.02 | 0.33 | 0.33 | 88 | 1011.8 |
| 20260507013005 | 69 | 142 | 3.0 | 9.0 | 0.01 | 0.32 | 0.32 | 88 | 1011.4 |
| 20260507012504 | 69 | 140 | 4.0 | 14.0 | 0.01 | 0.32 | 0.32 | 88 | 1011.8 |
| 20260507012005 | 69 | 182 | 5.0 | 14.0 | 0.01 | 0.32 | 0.32 | 88 | 1012.0 |
| 20260507011504 | 69 | 195 | 4.0 | 12.0 | 0.01 | 0.32 | 0.32 | 88 | 1012.4 |
| 20260507011001 | 69 | 183 | 4.0 | 9.0 | 0.00 | 0.31 | 0.31 | 88 | 1012.2 |
| 20260507010503 | 69 | 193 | 2.0 | 7.0 | 0.00 | 0.31 | 0.31 | 88 | 1011.5 |
| 20260507010005 | 69 | 187 | 0.0 | 7.0 | 0.00 | 0.31 | 0.31 | 88 | 1011.0 |
| 20260507005504 | 69 | 179 | 2.0 | 5.0 | 0.00 | 0.31 | 0.31 | 88 | 1011.1 |
| 20260507005004 | 69 | 145 | 1.0 | 7.0 | 0.00 | 0.31 | 0.31 | 88 | 1011.0 |
| 20260507004510 | 69 | 255 | 2.0 | 8.0 | 0.00 | 0.31 | 0.31 | 88 | 1011.6 |
| 20260507004003 | 69 | 148 | 3.0 | 8.0 | 0.00 | 0.31 | 0.31 | 88 | 1011.3 |
| 20260507003507 | 70 | 154 | 4.0 | 7.0 | 0.00 | 0.31 | 0.31 | 88 | 1011.7 |
| 20260507003005 | 70 | 235 | 3.0 | 7.0 | 0.00 | 0.31 | 0.31 | 88 | 1012.2 |
| 20260507002502 | 70 | 229 | 2.0 | 7.0 | 0.00 | 0.31 | 0.31 | 88 | 1012.2 |
| 20260507002003 | 70 | 192 | 2.0 | 9.0 | 0.00 | 0.31 | 0.31 | 88 | 1011.8 |
| 20260507001514 | 70 | 177 | 1.0 | 9.0 | 0.00 | 0.31 | 0.31 | 88 | 1011.7 |
| 20260507001004 | 70 | 172 | 1.0 | 7.0 | 0.00 | 0.31 | 0.31 | 88 | 1011.6 |
| 20260507000505 | 70 | 150 | 3.0 | 7.0 | 0.00 | 0.31 | 0.31 | 88 | 1011.6 |
| 20260507000008 | 70 | 151 | 2.0 | 5.0 | 0.00 | 0.31 | 0.31 | 88 | 1011.9 |
| 20260506235504 | 71 | 118 | 2.0 | 4.0 | 0.00 | 0.31 | 0.31 | 88 | 1011.5 |
| 20260506235003 | 71 | 176 | 1.0 | 4.0 | 0.00 | 0.31 | 0.31 | 88 | 1011.8 |
| 20260506234503 | 71 | 165 | 0.0 | 2.0 | 0.00 | 0.31 | 0.31 | 88 | 1011.5 |
| 20260506234006 | 71 | 210 | 0.0 | 2.0 | 0.00 | 0.31 | 0.31 | 88 | 1011.6 |
| 20260506233503 | 71 | 210 | 0.0 | 8.0 | 0.00 | 0.31 | 0.31 | 88 | 1011.6 |
| 20260506233017 | 71 | 235 | 1.0 | 8.0 | 0.01 | 0.31 | 0.31 | 88 | 1011.3 |
| 20260506232504 | 71 | 172 | 3.0 | 8.0 | 0.01 | 0.31 | 0.31 | 88 | 1011.8 |
| 20260506232004 | 71 | 159 | 2.0 | 6.0 | 0.01 | 0.31 | 0.31 | 88 | 1011.9 |
| 20260506231517 | 71 | 165 | 2.0 | 6.0 | 0.01 | 0.31 | 0.31 | 88 | 1011.9 |
| 20260506231004 | 71 | 207 | 4.0 | 11.0 | 0.01 | 0.31 | 0.31 | 87 | 1011.8 |
| 20260506230507 | 71 | 165 | 2.0 | 11.0 | 0.01 | 0.31 | 0.31 | 87 | 1012.1 |
| 20260506230004 | 72 | 193 | 4.0 | 11.0 | 0.01 | 0.31 | 0.31 | 87 | 1012.4 |
| 20260506225503 | 72 | 184 | 3.0 | 11.0 | 0.01 | 0.31 | 0.31 | 87 | 1012.2 |
| 20260506225003 | 72 | 169 | 4.0 | 10.0 | 0.01 | 0.31 | 0.31 | 87 | 1012.4 |
| 20260506224506 | 72 | 224 | 2.0 | 9.0 | 0.01 | 0.31 | 0.31 | 88 | 1012.1 |
| 20260506224003 | 72 | 185 | 2.0 | 9.0 | 0.01 | 0.31 | 0.31 | 88 | 1011.7 |
| 20260506223503 | 72 | 148 | 2.0 | 9.0 | 0.01 | 0.31 | 0.31 | 87 | 1011.8 |
| 20260506223006 | 72 | 177 | 4.0 | 9.0 | 0.00 | 0.30 | 0.30 | 87 | 1012.4 |
| 20260506222510 | 72 | 207 | 3.0 | 9.0 | 0.00 | 0.30 | 0.30 | 87 | 1012.4 |
| 20260506222009 | 72 | 206 | 2.0 | 7.0 | 0.00 | 0.30 | 0.30 | 87 | 1012.4 |
| 20260506221508 | 72 | 220 | 3.0 | 7.0 | 0.01 | 0.30 | 0.30 | 87 | 1012.4 |
| 20260506221007 | 72 | 215 | 2.0 | 5.0 | 0.03 | 0.30 | 0.30 | 87 | 1012.2 |
| 20260506220507 | 72 | 198 | 0.0 | 5.0 | 0.11 | 0.30 | 0.30 | 88 | 1012.2 |
| 20260506220005 | 72 | 221 | 2.0 | 5.0 | 0.15 | 0.30 | 0.30 | 88 | 1012.3 |
| 20260506215507 | 72 | 211 | 1.0 | 6.0 | 0.19 | 0.30 | 0.30 | 88 | 1012.5 |
| 20260506215006 | 72 | 141 | 3.0 | 7.0 | 0.21 | 0.30 | 0.30 | 88 | 1012.5 |
| 20260506214507 | 71 | 196 | 3.0 | 7.0 | 0.21 | 0.30 | 0.30 | 88 | 1012.7 |
| 20260506214004 | 71 | 217 | 1.0 | 4.0 | 0.21 | 0.30 | 0.30 | 88 | 1012.4 |
| 20260506213505 | 71 | 204 | 2.0 | 5.0 | 0.22 | 0.30 | 0.30 | 88 | 1012.5 |
| 20260506213012 | 71 | 202 | 2.0 | 5.0 | 0.23 | 0.30 | 0.30 | 87 | 1012.7 |
| 20260506212507 | 71 | 188 | 2.0 | 4.0 | 0.23 | 0.30 | 0.30 | 87 | 1012.7 |
| 20260506212007 | 71 | 215 | 0.0 | 0.0 | 0.23 | 0.30 | 0.30 | 87 | 1012.5 |
| 20260506211517 | 71 | 198 | 0.0 | 8.0 | 0.22 | 0.29 | 0.29 | 87 | 1012.4 |
| 20260506211007 | 71 | 309 | 1.0 | 8.0 | 0.20 | 0.27 | 0.27 | 87 | 1012.4 |
| 20260506210515 | 71 | 323 | 5.0 | 8.0 | 0.12 | 0.19 | 0.19 | 87 | 1012.7 |
| 20260506210040 | 71 | 272 | 2.0 | 6.0 | 0.08 | 0.15 | 0.15 | 86 | 1012.8 |
| 20260506205505 | 71 | 270 | 3.0 | 9.0 | 0.04 | 0.11 | 0.11 | 86 | 1012.8 |
| 20260506205012 | 71 | 200 | 3.0 | 9.0 | 0.02 | 0.09 | 0.09 | 86 | 1012.5 |
| 20260506204516 | 71 | 217 | 2.0 | 10.0 | 0.06 | 0.09 | 0.09 | 86 | 1012.4 |
| 20260506204005 | 71 | 133 | 2.0 | 10.0 | 0.07 | 0.09 | 0.09 | 86 | 1012.5 |
| 20260506203511 | 71 | 205 | 3.0 | 7.0 | 0.07 | 0.08 | 0.08 | 86 | 1012.6 |
| 20260506203011 | 71 | 196 | 4.0 | 7.0 | 0.06 | 0.07 | 0.07 | 86 | 1012.6 |
| 20260506202503 | 71 | 213 | 2.0 | 7.0 | 0.06 | 0.07 | 0.07 | 86 | 1012.8 |
| 20260506202004 | 71 | 192 | 2.0 | 6.0 | 0.07 | 0.07 | 0.07 | 86 | 1013.0 |
| 20260506201516 | 72 | 145 | 2.0 | 7.0 | 0.07 | 0.07 | 0.07 | 86 | 1012.9 |
| 20260506201007 | 72 | 223 | 3.0 | 7.0 | 0.07 | 0.07 | 0.07 | 86 | 1013.3 |
| 20260506200507 | 72 | 217 | 1.0 | 7.0 | 0.07 | 0.07 | 0.07 | 86 | 1013.4 |
| 20260506200010 | 72 | 167 | 1.0 | 4.0 | 0.07 | 0.07 | 0.07 | 86 | 1013.2 |
| 20260506195507 | 72 | 165 | 1.0 | 6.0 | 0.07 | 0.07 | 0.07 | 85 | 1013.4 |
| 20260506195005 | 72 | 219 | 2.0 | 6.0 | 0.07 | 0.07 | 0.07 | 84 | 1013.8 |
| 20260506194525 | 72 | 242 | 2.0 | 8.0 | 0.03 | 0.03 | 0.03 | 83 | 1014.0 |
| 20260506194009 | 73 | 219 | 3.0 | 8.0 | 0.02 | 0.02 | 0.02 | 82 | 1013.9 |
| 20260506193504 | 73 | 219 | 3.0 | 6.0 | 0.01 | 0.01 | 0.01 | 82 | 1013.8 |
| 20260506193034 | 73 | 194 | 3.0 | 9.0 | 0.01 | 0.01 | 0.01 | 81 | 1013.9 |
| 20260506192507 | 74 | 243 | 4.0 | 11.0 | 0.01 | 0.01 | 0.01 | 79 | 1014.0 |
| 20260506192012 | 74 | 229 | 5.0 | 11.0 | 0.00 | 0.00 | 0.00 | 78 | 1014.0 |
| 20260506191513 | 75 | 227 | 6.0 | 11.0 | 0.00 | 0.00 | 0.00 | 76 | 1014.0 |
| 20260506191006 | 75 | 221 | 4.0 | 12.0 | 0.00 | 0.00 | 0.00 | 76 | 1013.9 |
| 20260506190502 | 76 | 238 | 5.0 | 12.0 | 0.00 | 0.00 | 0.00 | 75 | 1014.0 |
| 20260506190002 | 76 | 261 | 6.0 | 10.0 | 0.00 | 0.00 | 0.00 | 75 | 1014.2 |
| 20260506185505 | 76 | 146 | 3.0 | 10.0 | 0.00 | 0.00 | 0.00 | 75 | 1014.1 |
| 20260506185002 | 76 | 184 | 4.0 | 15.0 | 0.00 | 0.00 | 0.00 | 75 | 1014.2 |
| 20260506184504 | 76 | 234 | 5.0 | 18.0 | 0.00 | 0.00 | 0.00 | 75 | 1014.3 |
| 20260506184002 | 76 | 207 | 11.0 | 18.0 | 0.00 | 0.00 | 0.00 | 74 | 1014.4 |
| 20260506183503 | 76 | 198 | 4.0 | 10.0 | 0.00 | 0.00 | 0.00 | 76 | 1014.2 |
| 20260506183003 | 75 | 220 | 5.0 | 10.0 | 0.00 | 0.00 | 0.00 | 76 | 1014.3 |
| 20260506182506 | 75 | 179 | 5.0 | 12.0 | 0.00 | 0.00 | 0.00 | 76 | 1014.4 |
| 20260506182003 | 75 | 231 | 4.0 | 12.0 | 0.00 | 0.00 | 0.00 | 76 | 1014.4 |
| 20260506181501 | 75 | 206 | 6.0 | 12.0 | 0.00 | 0.00 | 0.00 | 76 | 1014.4 |
| 20260506181002 | 75 | 218 | 8.0 | 12.0 | 0.00 | 0.00 | 0.00 | 76 | 1014.6 |
| 20260506180501 | 75 | 227 | 5.0 | 16.0 | 0.00 | 0.00 | 0.00 | 76 | 1014.4 |
| 20260506180003 | 75 | 205 | 7.0 | 16.0 | 0.00 | 0.00 | 0.00 | 76 | 1014.4 |
| 20260506175502 | 75 | 207 | 6.0 | 15.0 | 0.00 | 0.00 | 0.00 | 75 | 1014.4 |
| 20260506175003 | 75 | 190 | 7.0 | 15.0 | 0.00 | 0.00 | 0.00 | 74 | 1014.6 |
| 20260506174503 | 76 | 233 | 8.0 | 16.0 | 0.00 | 0.00 | 0.00 | 75 | 1014.4 |
| 20260506174003 | 76 | 214 | 8.0 | 16.0 | 0.00 | 0.00 | 0.00 | 74 | 1014.4 |
| 20260506173504 | 76 | 209 | 8.0 | 17.0 | 0.00 | 0.00 | 0.00 | 75 | 1014.4 |
| 20260506173004 | 75 | 271 | 6.0 | 17.0 | 0.00 | 0.00 | 0.00 | 77 | 1014.5 |
| 20260506172503 | 74 | 246 | 9.0 | 16.0 | 0.00 | 0.00 | 0.00 | 77 | 1014.7 |
| 20260506172002 | 74 | 229 | 9.0 | 14.0 | 0.00 | 0.00 | 0.00 | 76 | 1014.9 |
| 20260506171505 | 74 | 229 | 8.0 | 16.0 | 0.00 | 0.00 | 0.00 | 76 | 1014.9 |
| 20260506171006 | 74 | 215 | 10.0 | 19.0 | 0.00 | 0.00 | 0.00 | 76 | 1015.0 |
| 20260506170505 | 74 | 231 | 9.0 | 19.0 | 0.00 | 0.00 | 0.00 | 75 | 1015.0 |
| 20260506170002 | 75 | 239 | 9.0 | 14.0 | 0.00 | 0.00 | 0.00 | 75 | 1015.2 |
| 20260506165502 | 75 | 231 | 8.0 | 14.0 | 0.00 | 0.00 | 0.00 | 75 | 1015.1 |
| 20260506165003 | 75 | 215 | 6.0 | 17.0 | 0.00 | 0.00 | 0.00 | 75 | 1015.1 |
| 20260506164513 | 75 | 228 | 8.0 | 17.0 | 0.00 | 0.00 | 0.00 | 75 | 1015.1 |